QFA7545 YPPH-YPPD
Flight info
| Callsign | QFA7545 |
|---|---|
| Flight time | 1h 51m |
| Altitude | 35000 |
| Route | AVNEX5/21 AVNEX Y15 ESDEG Y44 PD DCT |
| Aircraft | B738/M-SDE2E3FGHIJ1RWY/LB1 |
Departure
| Time | 2026-04-27 09:01 |
|---|---|
| Airport | Perth International Airport (YPPH) |
Arrival
| Time | 2026-04-27 10:52 |
|---|---|
| Airport | Port Hedland International Airport (YPPD) |
| Time | Latitude | Longitude | Altitude | Speed | Heading |
|---|---|---|---|---|---|
| 2026-04-27 08:25 | -31.93853 | 115.95890 | 55 ft | 0 kts | 329° |
| 2026-04-27 08:41 | -31.93862 | 115.95896 | 54 ft | 4 kts | 332° |
| 2026-04-27 08:41 | -31.93886 | 115.95907 | 52 ft | 4 kts | 350° |
| 2026-04-27 08:41 | -31.93911 | 115.95906 | 51 ft | 4 kts | 33° |
| 2026-04-27 08:42 | -31.93919 | 115.95897 | 51 ft | 1 kts | 58° |
| 2026-04-27 08:45 | -31.93919 | 115.95898 | 50 ft | 1 kts | 58° |
| 2026-04-27 08:46 | -31.93907 | 115.95920 | 51 ft | 7 kts | 58° |
| 2026-04-27 08:46 | -31.93876 | 115.95981 | 52 ft | 9 kts | 59° |
| 2026-04-27 08:46 | -31.93845 | 115.96042 | 54 ft | 9 kts | 59° |
| 2026-04-27 08:46 | -31.93814 | 115.96103 | 55 ft | 9 kts | 59° |
| 2026-04-27 08:47 | -31.93784 | 115.96162 | 55 ft | 8 kts | 59° |
| 2026-04-27 08:47 | -31.93734 | 115.96185 | 55 ft | 8 kts | 354° |
| 2026-04-27 08:47 | -31.93670 | 115.96175 | 54 ft | 11 kts | 358° |
| 2026-04-27 08:47 | -31.93594 | 115.96195 | 54 ft | 11 kts | 14° |
| 2026-04-27 08:48 | -31.93523 | 115.96225 | 54 ft | 11 kts | 33° |
| 2026-04-27 08:48 | -31.93481 | 115.96255 | 53 ft | 11 kts | 31° |
| 2026-04-27 08:48 | -31.93415 | 115.96290 | 52 ft | 10 kts | 21° |
| 2026-04-27 08:48 | -31.93321 | 115.96321 | 51 ft | 11 kts | 12° |
| 2026-04-27 08:49 | -31.93269 | 115.96329 | 50 ft | 11 kts | 360° |
| 2026-04-27 08:49 | -31.93193 | 115.96334 | 49 ft | 11 kts | 14° |
| 2026-04-27 08:49 | -31.93125 | 115.96370 | 50 ft | 11 kts | 44° |
| 2026-04-27 08:49 | -31.93059 | 115.96452 | 50 ft | 10 kts | 46° |
| 2026-04-27 08:50 | -31.93027 | 115.96493 | 51 ft | 10 kts | 46° |
| 2026-04-27 08:50 | -31.92980 | 115.96553 | 52 ft | 10 kts | 49° |
| 2026-04-27 08:50 | -31.92923 | 115.96590 | 52 ft | 10 kts | 14° |
| 2026-04-27 08:50 | -31.92861 | 115.96613 | 52 ft | 9 kts | 30° |
| 2026-04-27 08:51 | -31.92846 | 115.96680 | 52 ft | 9 kts | 105° |
| 2026-04-27 08:51 | -31.92851 | 115.96701 | 52 ft | 0 kts | 104° |
| 2026-04-27 08:59 | -31.92853 | 115.96714 | 52 ft | 5 kts | 104° |
| 2026-04-27 08:59 | -31.92869 | 115.96789 | 53 ft | 12 kts | 104° |
| 2026-04-27 08:59 | -31.92927 | 115.96827 | 51 ft | 2 kts | 192° |
| 2026-04-27 08:59 | -31.92927 | 115.96826 | 51 ft | 0 kts | 192° |
| 2026-04-27 09:00 | -31.92929 | 115.96826 | 51 ft | 2 kts | 193° |
| 2026-04-27 09:00 | -31.93033 | 115.96797 | 50 ft | 44 kts | 194° |
| 2026-04-27 09:00 | -31.93553 | 115.96645 | 49 ft | 108 kts | 194° |
| 2026-04-27 09:01 | -31.94457 | 115.96376 | 81 ft | 156 kts | 195° |
| 2026-04-27 09:01 | -31.95530 | 115.96070 | 545 ft | 164 kts | 195° |
| 2026-04-27 09:01 | -31.96658 | 115.95740 | 1171 ft | 166 kts | 195° |
| 2026-04-27 09:01 | -31.97800 | 115.95413 | 1772 ft | 169 kts | 194° |
| 2026-04-27 09:02 | -31.98952 | 115.95079 | 2380 ft | 171 kts | 197° |
| 2026-04-27 09:02 | -32.00131 | 115.94753 | 2894 ft | 181 kts | 199° |
| 2026-04-27 09:02 | -32.01322 | 115.94220 | 3239 ft | 192 kts | 224° |
| 2026-04-27 09:02 | -32.02209 | 115.92979 | 3518 ft | 201 kts | 253° |
| 2026-04-27 09:03 | -32.02463 | 115.91331 | 3713 ft | 212 kts | 278° |
| 2026-04-27 09:03 | -32.02278 | 115.89543 | 3909 ft | 234 kts | 283° |
| 2026-04-27 09:03 | -32.02012 | 115.87601 | 4465 ft | 241 kts | 283° |
| 2026-04-27 09:03 | -32.01747 | 115.85642 | 5198 ft | 243 kts | 283° |
| 2026-04-27 09:04 | -32.01490 | 115.83692 | 6059 ft | 238 kts | 282° |
| 2026-04-27 09:04 | -32.01238 | 115.81762 | 6867 ft | 237 kts | 282° |
| 2026-04-27 09:04 | -32.00986 | 115.79829 | 7566 ft | 241 kts | 282° |
| 2026-04-27 09:04 | -32.00730 | 115.77859 | 8253 ft | 244 kts | 283° |
| 2026-04-27 09:05 | -32.00470 | 115.75860 | 8931 ft | 249 kts | 283° |
| 2026-04-27 09:05 | -32.00208 | 115.73832 | 9667 ft | 251 kts | 282° |
| 2026-04-27 09:05 | -31.99940 | 115.71775 | 10303 ft | 259 kts | 282° |
| 2026-04-27 09:05 | -31.99654 | 115.69598 | 10474 ft | 282 kts | 282° |
| 2026-04-27 09:06 | -31.99324 | 115.67216 | 10642 ft | 304 kts | 284° |
| 2026-04-27 09:06 | -31.98440 | 115.64909 | 10913 ft | 317 kts | 307° |
| 2026-04-27 09:06 | -31.96826 | 115.63113 | 11141 ft | 338 kts | 324° |
| 2026-04-27 09:06 | -31.94604 | 115.61980 | 11369 ft | 361 kts | 342° |
| 2026-04-27 09:07 | -31.92045 | 115.61696 | 11809 ft | 379 kts | 359° |
| 2026-04-27 09:07 | -31.89384 | 115.62144 | 12202 ft | 394 kts | 7° |
| 2026-04-27 09:07 | -31.86690 | 115.62877 | 12771 ft | 399 kts | 9° |
| 2026-04-27 09:07 | -31.83988 | 115.63637 | 13491 ft | 398 kts | 8° |
| 2026-04-27 09:08 | -31.81279 | 115.64332 | 14140 ft | 399 kts | 7° |
| 2026-04-27 09:08 | -31.78543 | 115.64982 | 14704 ft | 402 kts | 7° |
| 2026-04-27 09:08 | -31.75788 | 115.65588 | 15271 ft | 404 kts | 6° |
| 2026-04-27 09:08 | -31.73001 | 115.66141 | 15835 ft | 406 kts | 5° |
| 2026-04-27 09:09 | -31.70200 | 115.66689 | 16381 ft | 409 kts | 5° |
| 2026-04-27 09:09 | -31.67392 | 115.67245 | 16909 ft | 411 kts | 5° |
| 2026-04-27 09:09 | -31.64564 | 115.67812 | 17408 ft | 413 kts | 6° |
| 2026-04-27 09:09 | -31.61755 | 115.68377 | 17891 ft | 416 kts | 6° |
| 2026-04-27 09:10 | -31.58898 | 115.68953 | 18354 ft | 418 kts | 6° |
| 2026-04-27 09:10 | -31.56027 | 115.69532 | 18787 ft | 421 kts | 6° |
| 2026-04-27 09:10 | -31.53124 | 115.70118 | 19208 ft | 423 kts | 6° |
| 2026-04-27 09:10 | -31.50219 | 115.70702 | 19633 ft | 425 kts | 6° |
| 2026-04-27 09:11 | -31.47295 | 115.71289 | 20041 ft | 427 kts | 6° |
| 2026-04-27 09:11 | -31.44357 | 115.71879 | 20426 ft | 429 kts | 6° |
| 2026-04-27 09:11 | -31.41403 | 115.72472 | 20790 ft | 431 kts | 6° |
| 2026-04-27 09:11 | -31.38440 | 115.73065 | 21099 ft | 433 kts | 5° |
| 2026-04-27 09:12 | -31.35459 | 115.73663 | 21404 ft | 436 kts | 6° |
| 2026-04-27 09:12 | -31.32457 | 115.74262 | 21739 ft | 438 kts | 6° |
| 2026-04-27 09:12 | -31.29452 | 115.74869 | 22074 ft | 438 kts | 5° |
| 2026-04-27 09:12 | -31.26473 | 115.75466 | 22359 ft | 441 kts | 5° |
| 2026-04-27 09:13 | -31.23436 | 115.76071 | 22651 ft | 443 kts | 5° |
| 2026-04-27 09:13 | -31.20388 | 115.76678 | 22959 ft | 445 kts | 5° |
| 2026-04-27 09:13 | -31.17329 | 115.77287 | 23228 ft | 447 kts | 5° |
| 2026-04-27 09:13 | -31.14259 | 115.77898 | 23498 ft | 448 kts | 5° |
| 2026-04-27 09:14 | -31.11184 | 115.78511 | 23765 ft | 450 kts | 5° |
| 2026-04-27 09:14 | -31.08081 | 115.79130 | 24025 ft | 452 kts | 5° |
| 2026-04-27 09:14 | -31.04979 | 115.79748 | 24275 ft | 453 kts | 5° |
| 2026-04-27 09:14 | -31.01866 | 115.80368 | 24508 ft | 455 kts | 5° |
| 2026-04-27 09:15 | -30.98736 | 115.80989 | 24711 ft | 457 kts | 5° |
| 2026-04-27 09:15 | -30.95592 | 115.81614 | 24923 ft | 459 kts | 5° |
| 2026-04-27 09:15 | -30.92441 | 115.82240 | 25168 ft | 460 kts | 5° |
| 2026-04-27 09:15 | -30.89287 | 115.82866 | 25497 ft | 459 kts | 5° |
| 2026-04-27 09:16 | -30.86142 | 115.83491 | 25847 ft | 458 kts | 5° |
| 2026-04-27 09:16 | -30.83002 | 115.84114 | 26192 ft | 457 kts | 5° |
| 2026-04-27 09:16 | -30.79862 | 115.84736 | 26482 ft | 458 kts | 5° |
| 2026-04-27 09:16 | -30.76724 | 115.85355 | 26800 ft | 458 kts | 5° |
| 2026-04-27 09:17 | -30.73580 | 115.85977 | 27137 ft | 457 kts | 5° |
| 2026-04-27 09:17 | -30.70479 | 115.86589 | 27481 ft | 457 kts | 5° |
| 2026-04-27 09:17 | -30.67348 | 115.87208 | 27853 ft | 456 kts | 5° |
| 2026-04-27 09:17 | -30.64183 | 115.87832 | 28190 ft | 456 kts | 5° |
| 2026-04-27 09:18 | -30.61052 | 115.88449 | 28499 ft | 457 kts | 5° |
| 2026-04-27 09:18 | -30.57960 | 115.89058 | 28825 ft | 457 kts | 5° |
| 2026-04-27 09:18 | -30.54828 | 115.89675 | 29190 ft | 455 kts | 5° |
| 2026-04-27 09:18 | -30.51707 | 115.90291 | 29533 ft | 455 kts | 5° |
| 2026-04-27 09:19 | -30.48583 | 115.90906 | 29872 ft | 455 kts | 5° |
| 2026-04-27 09:19 | -30.45455 | 115.91520 | 30182 ft | 456 kts | 5° |
| 2026-04-27 09:19 | -30.42331 | 115.92133 | 30562 ft | 455 kts | 5° |
| 2026-04-27 09:19 | -30.39224 | 115.92744 | 30989 ft | 452 kts | 5° |
| 2026-04-27 09:20 | -30.36124 | 115.93355 | 31362 ft | 450 kts | 5° |
| 2026-04-27 09:20 | -30.33037 | 115.93961 | 31728 ft | 449 kts | 5° |
| 2026-04-27 09:20 | -30.29962 | 115.94562 | 32091 ft | 448 kts | 4° |
| 2026-04-27 09:20 | -30.26898 | 115.95162 | 32429 ft | 447 kts | 4° |
| 2026-04-27 09:21 | -30.23835 | 115.95761 | 32782 ft | 445 kts | 4° |
| 2026-04-27 09:21 | -30.20787 | 115.96358 | 33186 ft | 443 kts | 4° |
| 2026-04-27 09:21 | -30.17754 | 115.96951 | 33532 ft | 441 kts | 3° |
| 2026-04-27 09:21 | -30.14732 | 115.97541 | 33860 ft | 440 kts | 3° |
| 2026-04-27 09:22 | -30.11721 | 115.98129 | 34228 ft | 438 kts | 3° |
| 2026-04-27 09:22 | -30.08717 | 115.98715 | 34541 ft | 437 kts | 3° |
| 2026-04-27 09:22 | -30.05764 | 115.99289 | 34765 ft | 437 kts | 3° |
| 2026-04-27 09:22 | -30.02760 | 115.99873 | 34951 ft | 438 kts | 2° |
| 2026-04-27 09:23 | -29.99745 | 116.00459 | 35000 ft | 440 kts | 2° |
| 2026-04-27 09:23 | -29.93699 | 116.01634 | 35011 ft | 440 kts | 2° |
| 2026-04-27 09:24 | -29.87680 | 116.02806 | 35011 ft | 437 kts | 2° |
| 2026-04-27 09:24 | -29.81683 | 116.03970 | 35011 ft | 436 kts | 2° |
| 2026-04-27 09:25 | -29.75717 | 116.05127 | 35009 ft | 435 kts | 2° |
| 2026-04-27 09:25 | -29.69751 | 116.06281 | 35013 ft | 434 kts | 2° |
| 2026-04-27 09:26 | -29.63794 | 116.07433 | 35012 ft | 434 kts | 2° |
| 2026-04-27 09:26 | -29.57819 | 116.08586 | 35007 ft | 435 kts | 2° |
| 2026-04-27 09:27 | -29.51890 | 116.09730 | 35010 ft | 435 kts | 2° |
| 2026-04-27 09:27 | -29.45918 | 116.10881 | 35005 ft | 435 kts | 2° |
| 2026-04-27 09:28 | -29.39935 | 116.12033 | 35009 ft | 436 kts | 2° |
| 2026-04-27 09:28 | -29.33953 | 116.13182 | 35009 ft | 436 kts | 2° |
| 2026-04-27 09:29 | -29.27956 | 116.14334 | 34996 ft | 437 kts | 2° |
| 2026-04-27 09:29 | -29.21952 | 116.15485 | 34996 ft | 437 kts | 1° |
| 2026-04-27 09:30 | -29.15955 | 116.16635 | 34998 ft | 436 kts | 1° |
| 2026-04-27 09:30 | -29.10006 | 116.17772 | 34995 ft | 435 kts | 1° |
| 2026-04-27 09:31 | -29.04031 | 116.18912 | 34999 ft | 435 kts | 1° |
| 2026-04-27 09:31 | -28.98065 | 116.20051 | 34998 ft | 434 kts | 1° |
| 2026-04-27 09:32 | -28.92103 | 116.21188 | 34997 ft | 433 kts | 0° |
| 2026-04-27 09:32 | -28.86169 | 116.22318 | 35007 ft | 432 kts | 0° |
| 2026-04-27 09:33 | -28.80244 | 116.23445 | 34995 ft | 431 kts | 0° |
| 2026-04-27 09:33 | -28.74325 | 116.24569 | 35002 ft | 430 kts | 0° |
| 2026-04-27 09:34 | -28.69417 | 116.25501 | 35005 ft | 430 kts | 0° |
| 2026-04-27 09:34 | -28.62560 | 116.26803 | 34995 ft | 429 kts | 360° |
| 2026-04-27 09:35 | -28.56673 | 116.27914 | 34996 ft | 428 kts | 360° |
| 2026-04-27 09:35 | -28.50799 | 116.29026 | 34997 ft | 427 kts | 360° |
| 2026-04-27 09:36 | -28.45924 | 116.29947 | 35000 ft | 427 kts | 360° |
| 2026-04-27 09:36 | -28.39101 | 116.31235 | 35008 ft | 426 kts | 360° |
| 2026-04-27 09:37 | -28.34198 | 116.32158 | 35012 ft | 426 kts | 359° |
| 2026-04-27 09:37 | -28.28351 | 116.33259 | 35019 ft | 426 kts | 359° |
| 2026-04-27 09:38 | -28.22510 | 116.34358 | 35019 ft | 425 kts | 359° |
| 2026-04-27 09:38 | -28.16671 | 116.35456 | 35021 ft | 425 kts | 359° |
| 2026-04-27 09:39 | -28.10829 | 116.36551 | 35021 ft | 425 kts | 359° |
| 2026-04-27 09:39 | -28.05032 | 116.37638 | 35019 ft | 426 kts | 359° |
| 2026-04-27 09:40 | -27.99180 | 116.38734 | 35020 ft | 426 kts | 359° |
| 2026-04-27 09:40 | -27.93333 | 116.39830 | 35017 ft | 425 kts | 359° |
| 2026-04-27 09:41 | -27.87482 | 116.40921 | 35020 ft | 426 kts | 359° |
| 2026-04-27 09:41 | -27.81636 | 116.42012 | 35017 ft | 426 kts | 359° |
| 2026-04-27 09:42 | -27.75784 | 116.43096 | 35019 ft | 426 kts | 359° |
| 2026-04-27 09:42 | -27.69930 | 116.44473 | 35023 ft | 432 kts | 3° |
| 2026-04-27 09:43 | -27.64127 | 116.46097 | 35022 ft | 433 kts | 4° |
| 2026-04-27 09:43 | -27.58283 | 116.47741 | 35018 ft | 433 kts | 4° |
| 2026-04-27 09:44 | -27.52438 | 116.49363 | 35018 ft | 433 kts | 3° |
| 2026-04-27 09:44 | -27.46579 | 116.50971 | 35007 ft | 433 kts | 3° |
| 2026-04-27 09:45 | -27.40724 | 116.52576 | 35006 ft | 433 kts | 3° |
| 2026-04-27 09:45 | -27.34858 | 116.54179 | 35007 ft | 433 kts | 3° |
| 2026-04-27 09:46 | -27.29000 | 116.55780 | 35005 ft | 434 kts | 3° |
| 2026-04-27 09:46 | -27.23137 | 116.57380 | 35011 ft | 433 kts | 3° |
| 2026-04-27 09:47 | -27.17278 | 116.58979 | 35007 ft | 434 kts | 3° |
| 2026-04-27 09:47 | -27.11444 | 116.60564 | 35012 ft | 434 kts | 3° |
| 2026-04-27 09:48 | -27.05570 | 116.62164 | 35006 ft | 434 kts | 3° |
| 2026-04-27 09:48 | -26.99689 | 116.63765 | 35011 ft | 435 kts | 3° |
| 2026-04-27 09:49 | -26.93799 | 116.65366 | 35008 ft | 436 kts | 3° |
| 2026-04-27 09:49 | -26.87890 | 116.66970 | 35007 ft | 436 kts | 3° |
| 2026-04-27 09:50 | -26.81983 | 116.68572 | 35015 ft | 437 kts | 3° |
| 2026-04-27 09:50 | -26.76115 | 116.70162 | 35011 ft | 437 kts | 4° |
| 2026-04-27 09:51 | -26.70197 | 116.71765 | 35002 ft | 437 kts | 3° |
| 2026-04-27 09:51 | -26.64274 | 116.73366 | 35000 ft | 437 kts | 3° |
| 2026-04-27 09:52 | -26.58365 | 116.74958 | 34998 ft | 437 kts | 3° |
| 2026-04-27 09:52 | -26.52453 | 116.76545 | 34997 ft | 437 kts | 3° |
| 2026-04-27 09:53 | -26.46540 | 116.78135 | 35004 ft | 437 kts | 4° |
| 2026-04-27 09:53 | -26.40630 | 116.79725 | 34998 ft | 437 kts | 4° |
| 2026-04-27 09:54 | -26.34750 | 116.81304 | 35003 ft | 437 kts | 3° |
| 2026-04-27 09:54 | -26.28848 | 116.82890 | 34994 ft | 436 kts | 4° |
| 2026-04-27 09:55 | -26.22949 | 116.84470 | 35001 ft | 436 kts | 4° |
| 2026-04-27 09:55 | -26.14095 | 116.86840 | 34999 ft | 436 kts | 4° |
| 2026-04-27 09:56 | -26.08190 | 116.88418 | 34994 ft | 437 kts | 4° |
| 2026-04-27 09:56 | -26.02278 | 116.89998 | 34985 ft | 436 kts | 4° |
| 2026-04-27 09:57 | -25.96371 | 116.91575 | 34983 ft | 436 kts | 4° |
| 2026-04-27 09:57 | -25.90468 | 116.93148 | 34991 ft | 437 kts | 4° |
| 2026-04-27 09:58 | -25.84545 | 116.94725 | 34987 ft | 438 kts | 4° |
| 2026-04-27 09:58 | -25.78610 | 116.96304 | 34989 ft | 439 kts | 4° |
| 2026-04-27 09:59 | -25.72694 | 116.97877 | 34998 ft | 440 kts | 4° |
| 2026-04-27 09:59 | -25.66729 | 116.99461 | 34995 ft | 441 kts | 4° |
| 2026-04-27 10:00 | -25.60747 | 117.01048 | 34981 ft | 442 kts | 4° |
| 2026-04-27 10:00 | -25.54755 | 117.02637 | 34983 ft | 443 kts | 4° |
| 2026-04-27 10:01 | -25.48755 | 117.04225 | 34980 ft | 443 kts | 4° |
| 2026-04-27 10:01 | -25.42796 | 117.05802 | 34983 ft | 443 kts | 4° |
| 2026-04-27 10:02 | -25.36799 | 117.07388 | 34979 ft | 442 kts | 4° |
| 2026-04-27 10:02 | -25.30811 | 117.08968 | 34979 ft | 442 kts | 4° |
| 2026-04-27 10:03 | -25.24814 | 117.10547 | 34986 ft | 443 kts | 4° |
| 2026-04-27 10:03 | -25.18814 | 117.12127 | 34980 ft | 443 kts | 4° |
| 2026-04-27 10:04 | -25.12849 | 117.13697 | 34975 ft | 443 kts | 4° |
| 2026-04-27 10:04 | -25.06854 | 117.15275 | 34971 ft | 443 kts | 4° |
| 2026-04-27 10:05 | -25.00857 | 117.16851 | 34974 ft | 443 kts | 4° |
| 2026-04-27 10:05 | -24.94866 | 117.18421 | 34973 ft | 442 kts | 4° |
| 2026-04-27 10:06 | -24.88872 | 117.19993 | 34974 ft | 442 kts | 4° |
| 2026-04-27 10:06 | -24.82877 | 117.21561 | 34970 ft | 443 kts | 4° |
| 2026-04-27 10:07 | -24.76881 | 117.23132 | 34969 ft | 443 kts | 4° |
| 2026-04-27 10:07 | -24.70870 | 117.24702 | 34974 ft | 444 kts | 4° |
| 2026-04-27 10:08 | -24.64858 | 117.26271 | 34970 ft | 444 kts | 4° |
| 2026-04-27 10:08 | -24.58870 | 117.27833 | 34961 ft | 445 kts | 4° |
| 2026-04-27 10:09 | -24.52841 | 117.29409 | 34964 ft | 445 kts | 4° |
| 2026-04-27 10:09 | -24.46809 | 117.30980 | 34962 ft | 445 kts | 4° |
| 2026-04-27 10:10 | -24.40766 | 117.32547 | 34966 ft | 446 kts | 4° |
| 2026-04-27 10:10 | -24.34754 | 117.34097 | 34962 ft | 446 kts | 4° |
| 2026-04-27 10:11 | -24.28696 | 117.35664 | 34957 ft | 447 kts | 4° |
| 2026-04-27 10:11 | -24.22643 | 117.37231 | 34960 ft | 447 kts | 4° |
| 2026-04-27 10:12 | -24.16583 | 117.38799 | 34968 ft | 448 kts | 4° |
| 2026-04-27 10:12 | -24.10514 | 117.40367 | 34959 ft | 448 kts | 4° |
| 2026-04-27 10:13 | -24.04480 | 117.41925 | 34952 ft | 448 kts | 4° |
| 2026-04-27 10:13 | -23.98402 | 117.43493 | 34954 ft | 448 kts | 4° |
| 2026-04-27 10:14 | -23.92330 | 117.45057 | 34955 ft | 449 kts | 4° |
| 2026-04-27 10:14 | -23.86251 | 117.46622 | 34952 ft | 449 kts | 5° |
| 2026-04-27 10:15 | -23.80165 | 117.48186 | 34951 ft | 449 kts | 4° |
| 2026-04-27 10:15 | -23.74078 | 117.49750 | 34955 ft | 449 kts | 4° |
| 2026-04-27 10:16 | -23.67986 | 117.51314 | 34953 ft | 450 kts | 4° |
| 2026-04-27 10:16 | -23.61918 | 117.52870 | 34951 ft | 450 kts | 4° |
| 2026-04-27 10:17 | -23.55829 | 117.54431 | 34951 ft | 449 kts | 5° |
| 2026-04-27 10:17 | -23.49736 | 117.55991 | 34957 ft | 449 kts | 5° |
| 2026-04-27 10:18 | -23.43653 | 117.57546 | 34952 ft | 449 kts | 5° |
| 2026-04-27 10:18 | -23.37565 | 117.59101 | 34954 ft | 449 kts | 5° |
| 2026-04-27 10:19 | -23.31473 | 117.60656 | 34951 ft | 449 kts | 5° |
| 2026-04-27 10:19 | -23.25430 | 117.62196 | 34957 ft | 449 kts | 5° |
| 2026-04-27 10:20 | -23.19348 | 117.63747 | 34951 ft | 449 kts | 5° |
| 2026-04-27 10:20 | -23.13261 | 117.65296 | 34955 ft | 448 kts | 5° |
| 2026-04-27 10:21 | -23.07185 | 117.66840 | 34955 ft | 448 kts | 5° |
| 2026-04-27 10:21 | -23.01109 | 117.68383 | 34951 ft | 448 kts | 5° |
| 2026-04-27 10:22 | -22.96061 | 117.69664 | 34959 ft | 448 kts | 5° |
| 2026-04-27 10:22 | -22.88953 | 117.71466 | 34950 ft | 449 kts | 5° |
| 2026-04-27 10:23 | -22.82904 | 117.72999 | 34958 ft | 449 kts | 5° |
| 2026-04-27 10:23 | -22.77803 | 117.74290 | 34952 ft | 449 kts | 5° |
| 2026-04-27 10:24 | -22.71713 | 117.75830 | 34959 ft | 450 kts | 5° |
| 2026-04-27 10:24 | -22.65606 | 117.77373 | 34942 ft | 450 kts | 5° |
| 2026-04-27 10:25 | -22.59544 | 117.78903 | 34945 ft | 450 kts | 5° |
| 2026-04-27 10:25 | -22.53434 | 117.80445 | 34942 ft | 450 kts | 5° |
| 2026-04-27 10:26 | -22.47334 | 117.81982 | 34944 ft | 450 kts | 6° |
| 2026-04-27 10:26 | -22.41233 | 117.83518 | 34946 ft | 450 kts | 6° |
| 2026-04-27 10:27 | -22.35139 | 117.85051 | 34946 ft | 450 kts | 6° |
| 2026-04-27 10:27 | -22.29028 | 117.86588 | 34942 ft | 450 kts | 6° |
| 2026-04-27 10:28 | -22.22959 | 117.88112 | 34941 ft | 451 kts | 6° |
| 2026-04-27 10:28 | -22.19894 | 117.88882 | 34680 ft | 455 kts | 6° |
| 2026-04-27 10:28 | -22.16797 | 117.89655 | 34083 ft | 456 kts | 6° |
| 2026-04-27 10:29 | -22.13711 | 117.90429 | 33429 ft | 455 kts | 6° |
| 2026-04-27 10:29 | -22.10628 | 117.91202 | 32711 ft | 455 kts | 7° |
| 2026-04-27 10:29 | -22.07542 | 117.91975 | 31987 ft | 456 kts | 7° |
| 2026-04-27 10:29 | -22.04464 | 117.92748 | 31474 ft | 452 kts | 7° |
| 2026-04-27 10:30 | -22.01409 | 117.93514 | 30939 ft | 448 kts | 7° |
| 2026-04-27 10:30 | -21.98384 | 117.94273 | 30421 ft | 444 kts | 8° |
| 2026-04-27 10:30 | -21.95387 | 117.95024 | 29902 ft | 440 kts | 8° |
| 2026-04-27 10:30 | -21.92422 | 117.95766 | 29385 ft | 435 kts | 8° |
| 2026-04-27 10:31 | -21.89479 | 117.96501 | 28857 ft | 432 kts | 8° |
| 2026-04-27 10:31 | -21.86561 | 117.97230 | 28334 ft | 428 kts | 8° |
| 2026-04-27 10:31 | -21.83674 | 117.97950 | 27816 ft | 425 kts | 8° |
| 2026-04-27 10:31 | -21.80840 | 117.98656 | 27306 ft | 421 kts | 8° |
| 2026-04-27 10:32 | -21.77993 | 117.99366 | 26793 ft | 418 kts | 8° |
| 2026-04-27 10:32 | -21.75169 | 118.00070 | 26280 ft | 415 kts | 9° |
| 2026-04-27 10:32 | -21.72358 | 118.00770 | 25773 ft | 412 kts | 9° |
| 2026-04-27 10:32 | -21.69576 | 118.01463 | 25265 ft | 409 kts | 9° |
| 2026-04-27 10:33 | -21.66813 | 118.02151 | 24775 ft | 407 kts | 9° |
| 2026-04-27 10:33 | -21.64062 | 118.02836 | 24263 ft | 404 kts | 9° |
| 2026-04-27 10:33 | -21.61331 | 118.03517 | 23765 ft | 401 kts | 9° |
| 2026-04-27 10:33 | -21.58616 | 118.04192 | 23276 ft | 399 kts | 9° |
| 2026-04-27 10:34 | -21.55919 | 118.04863 | 22784 ft | 396 kts | 10° |
| 2026-04-27 10:34 | -21.53239 | 118.05530 | 22290 ft | 394 kts | 9° |
| 2026-04-27 10:34 | -21.50613 | 118.06183 | 21812 ft | 391 kts | 10° |
| 2026-04-27 10:34 | -21.47974 | 118.06839 | 21333 ft | 388 kts | 10° |
| 2026-04-27 10:35 | -21.45345 | 118.07491 | 20852 ft | 386 kts | 10° |
| 2026-04-27 10:35 | -21.42756 | 118.08208 | 20361 ft | 385 kts | 16° |
| 2026-04-27 10:35 | -21.40294 | 118.09345 | 19871 ft | 386 kts | 25° |
| 2026-04-27 10:35 | -21.38043 | 118.10922 | 19372 ft | 386 kts | 33° |
| 2026-04-27 10:36 | -21.35879 | 118.12614 | 18896 ft | 383 kts | 33° |
| 2026-04-27 10:36 | -21.33739 | 118.14301 | 18422 ft | 380 kts | 33° |
| 2026-04-27 10:36 | -21.31613 | 118.15977 | 17955 ft | 377 kts | 33° |
| 2026-04-27 10:36 | -21.29505 | 118.17633 | 17494 ft | 374 kts | 33° |
| 2026-04-27 10:37 | -21.27409 | 118.19272 | 17032 ft | 371 kts | 33° |
| 2026-04-27 10:37 | -21.25329 | 118.20893 | 16581 ft | 368 kts | 33° |
| 2026-04-27 10:37 | -21.23263 | 118.22500 | 16128 ft | 366 kts | 34° |
| 2026-04-27 10:37 | -21.21211 | 118.24094 | 15683 ft | 363 kts | 34° |
| 2026-04-27 10:38 | -21.19174 | 118.25674 | 15232 ft | 360 kts | 34° |
| 2026-04-27 10:38 | -21.17178 | 118.27222 | 14795 ft | 358 kts | 34° |
| 2026-04-27 10:38 | -21.15169 | 118.28780 | 14347 ft | 355 kts | 34° |
| 2026-04-27 10:38 | -21.13172 | 118.30328 | 13905 ft | 353 kts | 34° |
| 2026-04-27 10:39 | -21.11188 | 118.31865 | 13457 ft | 350 kts | 34° |
| 2026-04-27 10:39 | -21.09219 | 118.33390 | 13018 ft | 348 kts | 34° |
| 2026-04-27 10:39 | -21.07262 | 118.34905 | 12575 ft | 346 kts | 35° |
| 2026-04-27 10:39 | -21.05318 | 118.36410 | 12131 ft | 344 kts | 35° |
| 2026-04-27 10:40 | -21.03387 | 118.37904 | 11688 ft | 341 kts | 35° |
| 2026-04-27 10:40 | -21.01464 | 118.39392 | 11244 ft | 339 kts | 35° |
| 2026-04-27 10:40 | -20.99554 | 118.40868 | 10804 ft | 337 kts | 35° |
| 2026-04-27 10:40 | -20.97662 | 118.42332 | 10412 ft | 333 kts | 35° |
| 2026-04-27 10:41 | -20.95817 | 118.43757 | 10272 ft | 322 kts | 36° |
| 2026-04-27 10:41 | -20.94054 | 118.45120 | 10119 ft | 312 kts | 36° |
| 2026-04-27 10:41 | -20.92327 | 118.46450 | 10021 ft | 300 kts | 36° |
| 2026-04-27 10:41 | -20.90646 | 118.47745 | 9752 ft | 297 kts | 36° |
| 2026-04-27 10:42 | -20.88976 | 118.49035 | 9431 ft | 295 kts | 36° |
| 2026-04-27 10:42 | -20.87322 | 118.50313 | 9108 ft | 293 kts | 37° |
| 2026-04-27 10:42 | -20.85673 | 118.51585 | 8779 ft | 290 kts | 37° |
| 2026-04-27 10:42 | -20.84040 | 118.52845 | 8447 ft | 289 kts | 37° |
| 2026-04-27 10:43 | -20.82420 | 118.54095 | 8116 ft | 287 kts | 37° |
| 2026-04-27 10:43 | -20.80801 | 118.55343 | 7783 ft | 285 kts | 37° |
| 2026-04-27 10:43 | -20.79197 | 118.56579 | 7453 ft | 284 kts | 37° |
| 2026-04-27 10:43 | -20.77601 | 118.57811 | 7125 ft | 282 kts | 37° |
| 2026-04-27 10:44 | -20.76013 | 118.59035 | 6793 ft | 281 kts | 37° |
| 2026-04-27 10:44 | -20.74433 | 118.60251 | 6469 ft | 279 kts | 37° |
| 2026-04-27 10:44 | -20.72864 | 118.61458 | 6144 ft | 277 kts | 36° |
| 2026-04-27 10:44 | -20.71304 | 118.62659 | 5823 ft | 276 kts | 37° |
| 2026-04-27 10:45 | -20.69751 | 118.63854 | 5505 ft | 274 kts | 36° |
| 2026-04-27 10:45 | -20.68213 | 118.65035 | 5191 ft | 271 kts | 36° |
| 2026-04-27 10:45 | -20.66694 | 118.66206 | 4999 ft | 264 kts | 37° |
| 2026-04-27 10:45 | -20.65229 | 118.67337 | 4874 ft | 256 kts | 36° |
| 2026-04-27 10:46 | -20.63809 | 118.68432 | 4758 ft | 247 kts | 36° |
| 2026-04-27 10:46 | -20.62441 | 118.69484 | 4651 ft | 238 kts | 36° |
| 2026-04-27 10:46 | -20.61137 | 118.70482 | 4556 ft | 230 kts | 36° |
| 2026-04-27 10:46 | -20.59863 | 118.71460 | 4451 ft | 221 kts | 36° |
| 2026-04-27 10:47 | -20.58607 | 118.72369 | 4257 ft | 218 kts | 30° |
| 2026-04-27 10:47 | -20.57268 | 118.73113 | 4048 ft | 216 kts | 28° |
| 2026-04-27 10:47 | -20.55930 | 118.73828 | 3839 ft | 212 kts | 28° |
| 2026-04-27 10:47 | -20.54636 | 118.74524 | 3617 ft | 205 kts | 28° |
| 2026-04-27 10:48 | -20.53390 | 118.75201 | 3394 ft | 198 kts | 28° |
| 2026-04-27 10:48 | -20.52091 | 118.75572 | 3159 ft | 194 kts | 359° |
| 2026-04-27 10:48 | -20.50852 | 118.75174 | 2949 ft | 183 kts | 331° |
| 2026-04-27 10:48 | -20.49900 | 118.74354 | 2791 ft | 167 kts | 321° |
| 2026-04-27 10:49 | -20.49076 | 118.73540 | 2579 ft | 158 kts | 321° |
| 2026-04-27 10:49 | -20.48282 | 118.72758 | 2405 ft | 156 kts | 317° |
| 2026-04-27 10:49 | -20.47446 | 118.71938 | 2249 ft | 168 kts | 316° |
| 2026-04-27 10:49 | -20.46584 | 118.71099 | 2024 ft | 167 kts | 315° |
| 2026-04-27 10:50 | -20.45737 | 118.70273 | 1798 ft | 163 kts | 314° |
| 2026-04-27 10:50 | -20.44916 | 118.69474 | 1578 ft | 157 kts | 314° |
| 2026-04-27 10:50 | -20.44137 | 118.68711 | 1380 ft | 152 kts | 314° |
| 2026-04-27 10:50 | -20.43358 | 118.67951 | 1186 ft | 151 kts | 319° |
| 2026-04-27 10:51 | -20.42597 | 118.67207 | 991 ft | 146 kts | 317° |
| 2026-04-27 10:51 | -20.41847 | 118.66474 | 793 ft | 146 kts | 316° |
| 2026-04-27 10:51 | -20.41100 | 118.65744 | 606 ft | 146 kts | 316° |
| 2026-04-27 10:51 | -20.40348 | 118.65008 | 410 ft | 148 kts | 317° |
| 2026-04-27 10:52 | -20.39587 | 118.64266 | 208 ft | 149 kts | 317° |
| 2026-04-27 10:52 | -20.38822 | 118.63537 | 38 ft | 143 kts | 317° |
| 2026-04-27 10:52 | -20.38209 | 118.62940 | 32 ft | 89 kts | 317° |
| 2026-04-27 10:52 | -20.37910 | 118.62647 | 33 ft | 34 kts | 318° |
| 2026-04-27 10:53 | -20.37743 | 118.62486 | 34 ft | 31 kts | 317° |
| 2026-04-27 10:53 | -20.37436 | 118.62189 | 33 ft | 29 kts | 332° |
| 2026-04-27 10:53 | -20.37363 | 118.62226 | 33 ft | 12 kts | 51° |
| 2026-04-27 10:54 | -20.37310 | 118.62289 | 32 ft | 11 kts | 55° |
| 2026-04-27 10:54 | -20.37326 | 118.62330 | 31 ft | 10 kts | 136° |
| 2026-04-27 10:54 | -20.37438 | 118.62442 | 32 ft | 39 kts | 137° |
| 2026-04-27 10:54 | -20.37689 | 118.62688 | 31 ft | 51 kts | 137° |
| 2026-04-27 10:55 | -20.37909 | 118.62908 | 33 ft | 31 kts | 136° |
| 2026-04-27 10:55 | -20.37965 | 118.62991 | 32 ft | 13 kts | 79° |
| 2026-04-27 10:55 | -20.37913 | 118.63074 | 31 ft | 14 kts | 79° |
| 2026-04-27 10:55 | -20.37920 | 118.63185 | 31 ft | 16 kts | 92° |
| 2026-04-27 10:56 | -20.37872 | 118.63259 | 31 ft | 7 kts | 49° |
| 2026-04-27 10:56 | -20.37870 | 118.63261 | 32 ft | 0 kts | 49° |